Mc Call Municipal Airport Mc Call US
ICAO: KMYL
IATA: MYL
Category: Medium
Scheduled Services: No

Elevation: 5024 ft
TransAlt. 18000 ft.

Airport Communications:
ASOS:119.925
SALT LAKE CITY CNTR:128.05
BOISE RDO:122.35
CTAF/UNICOM:122.8

KMYL Zoom In..

If you have problems with the map follow the link
https://www.worldairports.se/pages/airport.php?
ICAO=KMYL

Runways:

(A) RW 16 length 6108 ft width 75 ft
---- / hdg 162

(B) RW 34 length 6108 ft width 75 ft
---- / hdg 342

Location; KMYL
Day. 23 / Time. 06.51 Zulu
* Altimeter: 30.03
* Temperature: 05° c. 41°f.
* Wind from: 000° Speed 00 kn.
Dewpoint: 02° c.
Visibility: 10 Statute Miles.
Clouds: Broken 11000 ft.

KMYL 230651Z AUTO 00000KT 10SM BKN110 05/02 A3003 RMK AO2 SLP154 T00500017 402001017


Wind - Calm.

 
 
jpsmedia.com for Web Design worldairports.se 2018   terms of use